Time;durP1;ratioP1;P1;durP2;ratioP2;P2;SDS_P1;SDS_P2;PMS_P1;PMS_P2;Temp;Humidity;BMP_temperature;BMP_pressure;BME280_temperature;BME280_humidity;BME280_pressure;Samples;Min_cycle;Max_cycle;Signal;HPM_P1;HPM_P2
2022/10/04 00:01:20;;;;;;;13.53;8.43;;;;;;;12.02;61.55;98215.56;5030246;28;20434;-73
2022/10/04 00:03:48;;;;;;;13.77;8.53;;;;;;;12.01;61.46;98216.53;5031735;28;20472;-73
2022/10/04 00:06:19;;;;;;;10.80;8.00;;;;;;;11.98;61.04;98218.47;5030061;28;20422;-73
2022/10/04 00:08:49;;;;;;;15.60;8.80;;;;;;;11.94;61.30;98211.78;5030540;28;21053;-73
2022/10/04 00:11:25;;;;;;;12.43;7.83;;;;;;;11.97;61.23;98208.06;5030791;28;20434;-74
2022/10/04 00:13:56;;;;;;;8.40;7.50;;;;;;;11.96;61.00;98203.78;5030618;28;20545;-72
2022/10/04 00:16:27;;;;;;;13.00;8.27;;;;;;;11.92;60.86;98207.66;5028933;28;20430;-71
2022/10/04 00:19:14;;;;;;;9.53;7.40;;;;;;;11.83;60.89;98207.50;5031549;28;20500;-71
2022/10/04 00:21:55;;;;;;;13.20;8.03;;;;;;;11.75;60.68;98201.25;5014755;28;20796;-74
2022/10/04 00:24:31;;;;;;;10.90;8.20;;;;;;;11.78;61.05;98201.81;5028989;28;20430;-74
2022/10/04 00:27:22;;;;;;;10.23;8.00;;;;;;;11.78;61.03;98201.00;5028906;28;20492;-72
2022/10/04 00:30:00;;;;;;;9.93;7.83;;;;;;;11.74;60.68;98200.41;5008042;28;20438;-73
2022/10/04 00:32:42;;;;;;;17.70;8.83;;;;;;;11.67;60.57;98201.94;5031104;28;20461;-73
2022/10/04 00:35:27;;;;;;;14.60;8.20;;;;;;;11.52;61.49;98199.69;5028160;28;20430;-72
2022/10/04 00:38:05;;;;;;;11.07;7.70;;;;;;;11.52;61.66;98204.94;5025979;28;20480;-72
2022/10/04 00:40:39;;;;;;;9.90;7.70;;;;;;;11.56;61.35;98202.88;5024986;28;20436;-73
2022/10/04 00:43:11;;;;;;;10.37;7.63;;;;;;;11.54;61.72;98196.91;5032097;28;20426;-72
2022/10/04 00:45:52;;;;;;;18.77;8.40;;;;;;;11.56;61.38;98192.38;5030801;28;20823;-73
2022/10/04 00:48:46;;;;;;;11.80;7.30;;;;;;;11.57;61.18;98198.47;5028154;28;20436;-71
2022/10/04 00:51:26;;;;;;;14.37;7.63;;;;;;;11.49;61.46;98178.94;5023185;28;20434;-73
2022/10/04 00:53:56;;;;;;;11.40;7.80;;;;;;;11.56;61.35;98176.59;5030648;28;20462;-73
2022/10/04 00:56:32;;;;;;;12.13;7.93;;;;;;;11.59;61.35;98175.53;5030567;28;20438;-72
2022/10/04 00:58:58;;;;;;;11.50;8.30;;;;;;;11.60;60.97;98171.91;5031437;28;20446;-73
2022/10/04 01:01:26;;;;;;;11.60;7.40;;;;;;;11.56;61.12;98176.59;5031335;28;20481;-73
2022/10/04 01:03:52;;;;;;;11.00;7.50;;;;;;;11.57;60.75;98175.66;5012950;28;20179;-71
2022/10/04 01:06:19;;;;;;;10.37;7.80;;;;;;;11.52;60.56;98177.88;4979429;28;20431;-73
2022/10/04 01:08:51;;;;;;;15.13;11.10;;;;;;;11.45;61.07;98174.94;5030644;28;20489;-71
2022/10/04 01:11:21;;;;;;;17.40;11.70;;;;;;;11.46;61.13;98181.84;5006192;28;20942;-73
2022/10/04 01:13:57;;;;;;;23.53;14.73;;;;;;;11.48;60.72;98176.47;5029973;28;20549;-73
2022/10/04 01:16:32;;;;;;;21.40;16.00;;;;;;;11.48;60.58;98179.91;5028344;28;20499;-72
2022/10/04 01:19:25;;;;;;;21.97;12.97;;;;;;;11.50;60.60;98180.59;5030530;28;20442;-73
2022/10/04 01:22:13;;;;;;;19.30;10.70;;;;;;;11.49;60.77;98181.56;5023893;28;20411;-74
2022/10/04 01:24:40;;;;;;;13.80;8.77;;;;;;;11.48;60.26;98179.09;5028904;28;20427;-72
2022/10/04 01:27:37;;;;;;;9.47;7.00;;;;;;;11.42;60.61;98169.97;5029352;28;20434;-73
2022/10/04 01:30:08;;;;;;;8.80;7.30;;;;;;;11.43;60.71;98176.88;5034664;28;20476;-73
2022/10/04 01:32:33;;;;;;;8.37;7.10;;;;;;;11.30;61.19;98168.41;5026966;28;20820;-72
2022/10/04 01:34:59;;;;;;;9.60;6.90;;;;;;;11.33;61.36;98165.53;5033387;28;20499;-73
2022/10/04 01:37:25;;;;;;;11.63;7.50;;;;;;;11.33;61.42;98152.41;5032031;28;20422;-73
2022/10/04 01:39:50;;;;;;;11.87;6.93;;;;;;;11.33;61.40;98149.78;5032731;28;20242;-72
2022/10/04 01:42:41;;;;;;;9.17;7.13;;;;;;;11.30;61.65;98142.16;5040136;28;20186;-73
2022/10/04 01:45:30;;;;;;;12.27;7.43;;;;;;;11.31;61.34;98141.19;5028016;28;20667;-72
2022/10/04 01:48:00;;;;;;;9.63;7.57;;;;;;;11.34;61.29;98135.69;5033166;28;20933;-74
2022/10/04 01:50:42;;;;;;;7.47;6.60;;;;;;;11.28;61.30;98138.84;5034238;28;20885;-73
2022/10/04 01:53:25;;;;;;;11.47;7.53;;;;;;;11.22;61.77;98133.13;5031475;28;21048;-73
2022/10/04 01:55:54;;;;;;;8.43;7.30;;;;;;;11.25;61.72;98133.84;5033312;28;20426;-73
2022/10/04 01:58:28;;;;;;;11.30;7.83;;;;;;;11.26;61.53;98130.25;5030936;28;20439;-74
2022/10/04 02:01:03;;;;;;;9.50;7.07;;;;;;;11.22;60.96;98132.31;5032755;28;20437;-73
2022/10/04 02:03:33;;;;;;;8.40;7.50;;;;;;;11.21;60.48;98131.47;5031914;28;20932;-73
2022/10/04 02:06:00;;;;;;;9.87;7.70;;;;;;;11.17;60.49;98130.09;5033677;28;20457;-74
2022/10/04 02:08:32;;;;;;;13.70;9.07;;;;;;;11.13;60.78;98128.69;5031285;28;20419;-73
2022/10/04 02:11:00;;;;;;;11.10;9.07;;;;;;;11.13;61.11;98123.44;5032099;28;20675;-73
2022/10/04 02:13:28;;;;;;;10.23;7.33;;;;;;;11.16;60.98;98125.81;5031731;28;20466;-73
2022/10/04 02:15:54;;;;;;;8.73;7.10;;;;;;;11.11;61.10;98132.44;5032507;28;20427;-71
2022/10/04 02:18:21;;;;;;;10.73;6.60;;;;;;;11.06;61.49;98130.22;5030442;28;20576;-73
2022/10/04 02:20:48;;;;;;;22.83;7.80;;;;;;;11.05;61.41;98132.00;5037596;28;20815;-73
2022/10/04 02:23:16;;;;;;;14.67;7.33;;;;;;;11.09;61.43;98132.53;5033465;28;20425;-73
2022/10/04 02:25:41;;;;;;;7.93;6.07;;;;;;;11.09;61.33;98132.53;5032140;28;20800;-73
2022/10/04 02:28:12;;;;;;;8.63;7.33;;;;;;;11.07;61.29;98130.06;5030972;28;20430;-73
2022/10/04 02:30:40;;;;;;;7.27;6.30;;;;;;;11.02;61.09;98128.81;5031514;28;20203;-73
2022/10/04 02:33:06;;;;;;;9.60;6.80;;;;;;;10.98;61.38;98124.78;5031490;28;20544;-74
2022/10/04 02:35:34;;;;;;;7.53;6.20;;;;;;;11.01;61.40;98124.53;5032996;28;20450;-73
2022/10/04 02:38:06;;;;;;;9.57;7.00;;;;;;;11.01;61.75;98114.88;5031426;28;20445;-73
2022/10/04 02:40:47;;;;;;;13.30;6.90;;;;;;;11.01;61.44;98111.41;5024237;28;20447;-72
2022/10/04 02:43:19;;;;;;;8.37;6.10;;;;;;;10.99;61.56;98105.44;5033461;28;20936;-71
2022/10/04 02:45:51;;;;;;;14.47;6.97;;;;;;;11.01;61.32;98112.25;5037650;28;20423;-72
2022/10/04 02:48:36;;;;;;;7.57;6.67;;;;;;;10.83;62.32;98112.03;5030087;28;20488;-73
2022/10/04 02:51:13;;;;;;;8.03;7.20;;;;;;;10.89;62.21;98111.50;5031859;28;20781;-73
2022/10/04 02:53:59;;;;;;;9.60;6.73;;;;;;;10.95;62.13;98104.91;5031251;28;20953;-72
2022/10/04 02:56:25;;;;;;;7.77;7.00;;;;;;;10.98;61.88;98103.78;5029938;28;20805;-72
2022/10/04 02:58:51;;;;;;;8.80;6.97;;;;;;;10.97;61.55;98107.38;5031750;28;20442;-72
2022/10/04 03:01:26;;;;;;;14.10;7.10;;;;;;;10.95;61.32;98104.09;5029412;28;20195;-74
2022/10/04 03:03:52;;;;;;;8.00;6.50;;;;;;;10.93;61.42;98108.63;5032740;28;20460;-72
2022/10/04 03:06:19;;;;;;;10.90;6.30;;;;;;;10.85;61.67;98096.97;5031470;28;20522;-72
2022/10/04 03:08:53;;;;;;;9.60;7.13;;;;;;;10.89;61.07;98100.19;5031837;28;20497;-71
2022/10/04 03:11:21;;;;;;;7.43;6.30;;;;;;;10.89;61.54;98093.16;5032321;28;21099;-73
2022/10/04 03:13:53;;;;;;;9.27;7.20;;;;;;;10.86;61.28;98101.28;5031089;28;20466;-71
2022/10/04 03:16:20;;;;;;;8.57;6.33;;;;;;;10.93;61.42;98090.25;5030562;28;20431;-73
2022/10/04 03:18:46;;;;;;;12.37;7.30;;;;;;;10.89;61.43;98090.53;5032158;28;20457;-72
2022/10/04 03:21:15;;;;;;;8.80;6.60;;;;;;;10.88;61.20;98093.28;5038768;28;20846;-73
2022/10/04 03:23:41;;;;;;;8.70;6.80;;;;;;;10.93;61.33;98095.50;5009880;28;20985;-73
2022/10/04 03:26:46;;;;;;;9.93;7.30;;;;;;;10.84;61.25;98091.88;5029326;28;20511;-73
2022/10/04 03:29:13;;;;;;;11.10;7.57;;;;;;;10.89;61.44;98087.91;5031717;28;20288;-73
2022/10/04 03:31:45;;;;;;;14.40;7.70;;;;;;;10.84;61.25;98086.63;5027391;28;20432;-72
2022/10/04 03:34:17;;;;;;;9.30;6.90;;;;;;;10.84;61.54;98092.69;5034192;28;20545;-74
2022/10/04 03:36:43;;;;;;;7.63;6.90;;;;;;;10.87;61.71;98092.44;5031147;28;20423;-73
2022/10/04 03:39:10;;;;;;;9.00;6.27;;;;;;;10.81;61.45;98093.00;5031021;28;20442;-73
2022/10/04 03:41:38;;;;;;;9.90;7.03;;;;;;;10.77;61.45;98088.13;5041078;28;20434;-73
2022/10/04 03:44:05;;;;;;;9.80;7.17;;;;;;;10.66;61.43;98078.56;5031900;28;20960;-73
2022/10/04 03:46:31;;;;;;;11.30;6.80;;;;;;;10.69;61.66;98081.75;5030336;28;20415;-73
2022/10/04 03:48:57;;;;;;;14.90;6.70;;;;;;;10.70;61.68;98085.22;5031999;28;20435;-72
2022/10/04 03:51:25;;;;;;;11.50;7.10;;;;;;;10.72;61.98;98088.50;5028527;28;20277;-73
2022/10/04 03:53:53;;;;;;;10.70;8.10;;;;;;;10.68;61.88;98080.09;5031380;28;20214;-73
2022/10/04 03:56:27;;;;;;;9.47;6.80;;;;;;;10.73;62.01;98088.41;5031284;28;20434;-73
2022/10/04 03:58:54;;;;;;;13.17;7.70;;;;;;;10.75;61.40;98083.00;5029625;28;21024;-74
2022/10/04 04:01:23;;;;;;;10.53;7.30;;;;;;;10.73;61.19;98084.94;5037798;28;20430;-74
2022/10/04 04:04:18;;;;;;;8.13;7.10;;;;;;;10.71;61.29;98081.63;5029949;28;20422;-73
2022/10/04 04:07:02;;;;;;;9.30;7.13;;;;;;;10.77;61.50;98078.47;5029406;28;20419;-74
2022/10/04 04:09:36;;;;;;;9.13;7.20;;;;;;;10.75;61.41;98083.00;5026005;28;20454;-74
2022/10/04 04:12:05;;;;;;;11.10;7.47;;;;;;;10.72;61.24;98078.88;5034408;28;20422;-73
2022/10/04 04:14:30;;;;;;;7.10;6.40;;;;;;;10.71;61.26;98082.44;5029684;28;20426;-74
2022/10/04 04:17:24;;;;;;;15.20;7.20;;;;;;;10.73;61.61;98084.94;5028736;28;20945;-74
2022/10/04 04:19:50;;;;;;;9.80;6.70;;;;;;;10.74;61.18;98081.34;5025287;28;20242;-74
2022/10/04 04:22:17;;;;;;;9.50;7.03;;;;;;;10.70;61.34;98077.34;5037562;28;20430;-74
2022/10/04 04:24:43;;;;;;;7.90;6.47;;;;;;;10.71;61.49;98077.19;5029997;28;20180;-74
2022/10/04 04:27:09;;;;;;;10.60;7.27;;;;;;;10.71;61.83;98079.00;5035903;28;20490;-74
2022/10/04 04:29:41;;;;;;;9.47;7.13;;;;;;;10.72;61.92;98078.03;5029744;28;20446;-74
2022/10/04 04:32:23;;;;;;;12.97;7.53;;;;;;;10.73;62.29;98074.44;5030572;28;20455;-73
2022/10/04 04:35:24;;;;;;;8.20;6.70;;;;;;;10.75;62.76;98078.59;5029054;28;20434;-73
2022/10/04 04:38:25;;;;;;;12.30;7.10;;;;;;;10.80;63.12;98072.97;5025504;28;20430;-72
2022/10/04 04:40:54;;;;;;;11.83;6.50;;;;;;;10.80;63.02;98075.59;5008666;28;20462;-73
2022/10/04 04:43:20;;;;;;;10.70;6.33;;;;;;;10.80;62.69;98067.72;5016089;28;20441;-73
2022/10/04 04:45:48;;;;;;;10.80;7.03;;;;;;;10.82;62.97;98062.34;5037280;28;20427;-74
2022/10/04 04:48:15;;;;;;;7.97;6.83;;;;;;;10.84;63.04;98055.16;5029381;28;20432;-73
2022/10/04 04:50:41;;;;;;;9.33;6.40;;;;;;;10.87;63.19;98055.72;5030329;28;20961;-73
2022/10/04 04:53:09;;;;;;;8.80;6.80;;;;;;;10.90;62.88;98059.88;5016316;28;20458;-74
2022/10/04 04:55:40;;;;;;;9.40;6.63;;;;;;;10.85;62.72;98060.25;5030216;28;20184;-73
2022/10/04 04:58:06;;;;;;;11.03;8.10;;;;;;;10.88;62.53;98069.69;5028293;28;20933;-73
2022/10/04 05:00:34;;;;;;;8.80;7.50;;;;;;;10.82;62.41;98084.16;5027330;28;20963;-73
2022/10/04 05:03:02;;;;;;;8.33;6.90;;;;;;;10.83;61.98;98090.22;5032126;28;20429;-73
2022/10/04 05:05:32;;;;;;;10.00;7.70;;;;;;;10.80;61.97;98101.81;5031986;28;20419;-74
2022/10/04 05:08:09;;;;;;;12.53;7.10;;;;;;;10.80;61.39;98096.56;5033391;28;20453;-74
2022/10/04 05:10:34;;;;;;;10.83;7.20;;;;;;;10.78;61.61;98097.63;5035638;28;20456;-73
2022/10/04 05:13:01;;;;;;;8.40;7.50;;;;;;;10.76;61.73;98100.41;5041253;28;20454;-73
2022/10/04 05:15:31;;;;;;;13.30;7.60;;;;;;;10.66;61.63;98104.78;5033166;28;20188;-73
2022/10/04 05:17:58;;;;;;;11.50;7.30;;;;;;;10.59;61.70;98107.91;5040348;28;20425;-74
2022/10/04 05:20:24;;;;;;;13.77;6.93;;;;;;;10.62;62.20;98100.75;5035896;28;20446;-73
2022/10/04 05:22:50;;;;;;;11.40;7.73;;;;;;;10.63;62.27;98099.78;5035948;28;20521;-71
2022/10/04 05:25:24;;;;;;;8.90;7.83;;;;;;;10.64;62.25;98093.59;5032630;28;20201;-73
2022/10/04 05:27:50;;;;;;;11.60;7.77;;;;;;;10.64;62.14;98097.06;5053671;28;20425;-72
2022/10/04 05:30:25;;;;;;;11.23;7.00;;;;;;;10.59;61.96;98094.81;5053594;28;20789;-73
2022/10/04 05:32:59;;;;;;;10.60;7.63;;;;;;;10.58;62.07;98105.44;5029720;28;20255;-73
2022/10/04 05:35:26;;;;;;;12.33;7.80;;;;;;;10.57;62.00;98103.75;5043976;28;20421;-74
2022/10/04 05:37:57;;;;;;;28.07;8.27;;;;;;;10.54;62.31;98099.63;5050022;28;20426;-73
2022/10/04 05:40:31;;;;;;;19.83;8.90;;;;;;;10.53;62.26;98110.22;5052542;28;20453;-74
2022/10/04 05:42:58;;;;;;;13.90;7.87;;;;;;;10.54;62.41;98117.97;5048225;28;20913;-73
2022/10/04 05:45:29;;;;;;;14.37;7.83;;;;;;;10.59;62.45;98120.19;5053848;28;20784;-73
2022/10/04 05:47:56;;;;;;;9.03;7.43;;;;;;;10.65;62.47;98113.59;5052117;28;20776;-73
2022/10/04 05:50:35;;;;;;;10.73;8.10;;;;;;;10.65;62.21;98113.59;5051581;28;20437;-73
2022/10/04 05:53:25;;;;;;;9.90;7.77;;;;;;;10.67;62.41;98106.44;5052500;28;20465;-73
2022/10/04 05:56:27;;;;;;;11.37;8.93;;;;;;;10.75;62.72;98101.38;5053718;28;20931;-73
2022/10/04 05:59:14;;;;;;;12.77;7.50;;;;;;;10.75;62.75;98103.97;5046154;28;21371;-73
2022/10/04 06:01:47;;;;;;;18.90;7.17;;;;;;;10.74;62.40;98099.69;5041925;28;20431;-74
2022/10/04 06:04:51;;;;;;;9.63;7.90;;;;;;;10.79;62.84;98094.91;5039553;28;20997;-74
2022/10/04 06:07:20;;;;;;;10.67;7.67;;;;;;;10.89;63.08;98102.81;5049278;28;20927;-74
2022/10/04 06:09:56;;;;;;;11.90;7.70;;;;;;;10.89;63.25;98106.25;5053069;28;21001;-74
2022/10/04 06:12:41;;;;;;;13.33;8.03;;;;;;;10.91;63.41;98112.22;5052952;28;20460;-74
2022/10/04 06:15:48;;;;;;;9.30;8.03;;;;;;;11.02;63.59;98100.78;5050924;28;21020;-74
2022/10/04 06:18:42;;;;;;;14.17;7.83;;;;;;;11.01;63.59;98103.53;5050601;28;20471;-74
2022/10/04 06:21:20;;;;;;;15.80;7.50;;;;;;;11.02;63.87;98102.56;5044974;28;20423;-73
2022/10/04 06:23:52;;;;;;;11.43;7.17;;;;;;;11.06;64.42;98101.34;5053344;28;20405;-73
2022/10/04 06:26:23;;;;;;;10.60;7.60;;;;;;;11.17;64.48;98098.63;5043566;28;20430;-73
2022/10/04 06:28:53;;;;;;;13.73;7.60;;;;;;;11.21;64.31;98105.25;5052581;28;20796;-72
2022/10/04 06:31:25;;;;;;;9.90;7.70;;;;;;;11.26;64.66;98101.41;5047331;28;20436;-75
2022/10/04 06:34:08;;;;;;;8.93;7.50;;;;;;;11.31;64.53;98109.69;5042238;28;20457;-72
2022/10/04 06:37:12;;;;;;;9.90;6.53;;;;;;;11.36;64.60;98115.34;5036047;28;20424;-74
2022/10/04 06:39:53;;;;;;;10.60;7.13;;;;;;;11.37;64.54;98114.41;5038597;28;20433;-73
2022/10/04 06:42:21;;;;;;;13.73;8.23;;;;;;;11.36;64.95;98116.19;5044901;28;20524;-74
2022/10/04 06:45:11;;;;;;;16.00;9.33;;;;;;;11.37;64.67;98114.41;5053097;28;20468;-74
2022/10/04 06:48:17;;;;;;;14.87;8.73;;;;;;;11.49;65.16;98113.31;5052299;28;20436;-74
2022/10/04 06:50:48;;;;;;;11.80;8.53;;;;;;;11.60;64.97;98104.50;5030411;28;20457;-73
2022/10/04 06:53:23;;;;;;;13.63;8.13;;;;;;;11.68;64.71;98101.19;5034995;28;20466;-74
2022/10/04 06:56:06;;;;;;;17.77;8.93;;;;;;;11.78;64.85;98102.00;5051887;28;20425;-73
2022/10/04 06:58:52;;;;;;;11.00;7.60;;;;;;;11.89;64.98;98108.94;5051938;28;20413;-73
2022/10/04 07:01:23;;;;;;;15.03;8.20;;;;;;;11.95;64.77;98100.47;5047146;28;20981;-72
2022/10/04 07:04:22;;;;;;;15.33;8.00;;;;;;;12.03;64.81;98099.81;5031188;28;20419;-73
2022/10/04 07:07:34;;;;;;;19.47;8.10;;;;;;;12.16;64.97;98103.97;5038839;28;20409;-72
2022/10/04 07:10:25;;;;;;;10.43;7.80;;;;;;;12.27;64.96;98098.53;5051983;28;20524;-71
2022/10/04 07:13:02;;;;;;;17.97;8.30;;;;;;;12.35;65.36;98101.28;5052326;28;20454;-73
2022/10/04 07:15:31;;;;;;;14.70;7.77;;;;;;;12.39;65.51;98100.03;5051385;28;20424;-73
2022/10/04 07:17:57;;;;;;;13.60;7.80;;;;;;;12.46;65.54;98095.03;5033702;28;20430;-74
2022/10/04 07:20:30;;;;;;;12.73;8.47;;;;;;;12.50;65.35;98101.69;5049151;28;20992;-74
2022/10/04 07:23:32;;;;;;;11.83;7.80;;;;;;;12.57;65.24;98101.94;5045674;28;20421;-73
2022/10/04 07:26:05;;;;;;;14.30;6.90;;;;;;;12.52;64.88;98102.38;5012943;28;20446;-74
2022/10/04 07:31:33;;;;;;;9.20;6.60;;;;;;;12.60;64.76;98109.56;5043692;28;20437;-73
2022/10/04 07:34:14;;;;;;;9.37;6.60;;;;;;;12.67;64.99;98099.25;5062733;28;20461;-73
2022/10/04 07:36:47;;;;;;;11.53;7.07;;;;;;;12.73;65.38;98112.66;5049350;28;20435;-73
2022/10/04 07:39:17;;;;;;;9.40;6.47;;;;;;;12.80;65.42;98109.47;5045614;28;20446;-71
2022/10/04 07:41:54;;;;;;;10.00;7.10;;;;;;;12.88;65.29;98125.34;5045018;28;20997;-73
2022/10/04 07:44:20;;;;;;;9.70;6.97;;;;;;;12.94;65.16;98122.16;5050367;28;20516;-73
2022/10/04 07:46:51;;;;;;;9.60;7.30;;;;;;;12.98;65.34;98130.59;5050695;28;20517;-73
2022/10/04 07:49:19;;;;;;;12.53;6.60;;;;;;;12.97;65.58;98135.03;5049919;28;20215;-72
2022/10/04 07:51:53;;;;;;;11.73;7.60;;;;;;;13.08;65.89;98141.09;5044172;28;20422;-73
2022/10/04 07:54:32;;;;;;;17.30;7.10;;;;;;;13.16;65.72;98143.81;5049679;28;20464;-74
2022/10/04 07:57:02;;;;;;;11.13;7.90;;;;;;;13.21;66.17;98146.84;5050814;28;20422;-74
2022/10/04 07:59:47;;;;;;;11.90;7.30;;;;;;;13.27;66.26;98155.97;5050647;28;20884;-73
2022/10/04 08:02:41;;;;;;;13.33;7.50;;;;;;;13.30;66.47;98156.47;5033649;28;20428;-73
2022/10/04 08:05:20;;;;;;;14.50;7.83;;;;;;;13.43;66.67;98155.34;5049964;28;20414;-73
2022/10/04 08:08:25;;;;;;;22.83;7.60;;;;;;;13.44;66.02;98147.28;5049678;28;20973;-73
2022/10/04 08:11:05;;;;;;;10.57;7.90;;;;;;;13.53;66.24;98135.03;5048454;28;20430;-73
2022/10/04 08:13:51;;;;;;;15.37;7.80;;;;;;;13.58;65.67;98132.81;5050983;28;20502;-73
2022/10/04 08:16:25;;;;;;;23.80;8.83;;;;;;;13.73;65.96;98130.47;5049296;28;20434;-72
2022/10/04 08:19:05;;;;;;;11.03;7.67;;;;;;;13.84;65.71;98134.69;5051102;28;20441;-74
2022/10/04 08:21:44;;;;;;;8.30;7.20;;;;;;;13.91;65.20;98135.75;5042636;28;20462;-74
2022/10/04 08:25:08;;;;;;;10.90;6.27;;;;;;;13.83;63.97;98135.69;5049578;28;20433;-73
2022/10/04 08:31:05;;;;;;;15.13;6.23;;;;;;;14.00;62.89;98122.63;5042011;28;20798;-74
2022/10/04 08:33:58;;;;;;;15.67;6.63;;;;;;;14.07;63.57;98115.78;5041622;28;20548;-74
2022/10/04 08:36:58;;;;;;;7.20;6.17;;;;;;;14.21;63.13;98109.13;5049210;28;20446;-75
2022/10/04 08:39:49;;;;;;;11.00;7.17;;;;;;;14.38;62.67;98105.63;5040794;28;20458;-74
2022/10/04 08:42:40;;;;;;;17.67;7.27;;;;;;;14.42;62.44;98120.19;5043080;28;20421;-74
2022/10/04 08:45:37;;;;;;;8.97;7.40;;;;;;;14.50;62.84;98108.00;5050150;28;20421;-74
2022/10/04 08:48:27;;;;;;;13.13;7.40;;;;;;;14.68;62.14;98108.78;5048585;28;20518;-73
2022/10/04 08:51:01;;;;;;;9.73;6.20;;;;;;;14.97;61.41;98104.19;5050662;28;20508;-73
2022/10/04 08:53:42;;;;;;;12.87;6.50;;;;;;;15.27;61.42;98113.38;5042100;28;20547;-73
2022/10/04 08:56:44;;;;;;;12.10;6.30;;;;;;;15.42;59.46;98121.50;5039620;28;20934;-73
2022/10/04 08:59:28;;;;;;;10.60;5.43;;;;;;;15.62;58.28;98126.50;5050340;28;20449;-74
2022/10/04 09:02:09;;;;;;;16.70;5.77;;;;;;;15.79;58.50;98120.25;5039807;28;20430;-72
2022/10/04 09:04:48;;;;;;;10.67;6.40;;;;;;;16.10;57.87;98146.09;5034066;28;20929;-74
2022/10/04 09:07:25;;;;;;;9.93;6.50;;;;;;;16.49;57.83;98133.19;5048052;28;20433;-74
2022/10/04 09:10:15;;;;;;;8.90;6.20;;;;;;;16.86;56.41;98135.22;5045686;28;20825;-72
2022/10/04 09:13:25;;;;;;;18.40;6.73;;;;;;;17.17;54.87;98131.88;5050645;28;20527;-72
2022/10/04 09:15:58;;;;;;;11.33;5.13;;;;;;;17.29;53.49;98134.13;5050068;28;20425;-73
2022/10/04 09:19:05;;;;;;;8.87;5.43;;;;;;;17.29;52.62;98123.53;5049481;28;20422;-74
2022/10/04 09:21:42;;;;;;;8.00;5.20;;;;;;;17.63;53.46;98132.94;5021916;28;20979;-74
2022/10/04 09:24:26;;;;;;;8.03;5.07;;;;;;;17.98;52.89;98127.28;5049229;28;20475;-73
2022/10/04 09:27:17;;;;;;;11.40;4.10;;;;;;;18.23;51.48;98130.56;5049103;28;20771;-74
2022/10/04 09:30:17;;;;;;;8.77;4.00;;;;;;;18.48;49.26;98125.03;5050145;28;20433;-73
2022/10/04 09:33:09;;;;;;;9.83;4.00;;;;;;;18.52;49.50;98124.50;5032337;28;20503;-73
2022/10/04 09:35:41;;;;;;;5.07;3.97;;;;;;;18.48;49.16;98115.25;5032192;28;20425;-73
2022/10/04 09:38:30;;;;;;;8.87;4.97;;;;;;;18.67;49.33;98115.72;5045495;28;20422;-74
2022/10/04 09:41:06;;;;;;;11.00;4.50;;;;;;;18.76;49.05;98114.63;5040592;28;20921;-73
2022/10/04 09:44:06;;;;;;;6.50;4.20;;;;;;;18.67;48.79;98110.41;5029852;28;20418;-73
2022/10/04 09:46:50;;;;;;;7.87;4.37;;;;;;;18.48;49.08;98101.97;5041817;28;21205;-73
2022/10/04 09:49:31;;;;;;;7.80;4.20;;;;;;;18.64;49.50;98100.97;5050742;28;20434;-74
2022/10/04 09:52:15;;;;;;;12.53;4.30;;;;;;;18.79;49.16;98100.97;5052519;28;20429;-73
2022/10/04 09:54:53;;;;;;;6.90;3.63;;;;;;;19.05;48.83;98102.38;5051971;28;20425;-74
2022/10/04 09:57:33;;;;;;;5.87;3.50;;;;;;;19.39;47.98;98102.78;5052348;28;20500;-73
2022/10/04 10:00:21;;;;;;;10.30;3.93;;;;;;;19.62;47.03;98097.31;5051799;28;20512;-75
2022/10/04 10:03:01;;;;;;;5.53;3.77;;;;;;;19.63;46.54;98098.94;5034990;28;20779;-74
2022/10/04 10:05:51;;;;;;;10.80;4.70;;;;;;;19.94;46.30;98097.84;5053316;28;20525;-74
2022/10/04 10:08:22;;;;;;;10.47;4.00;;;;;;;19.83;46.54;98099.16;5052537;28;20425;-74
2022/10/04 10:14:08;;;;;;;6.50;4.20;;;;;;;19.84;46.35;98100.81;5053680;28;20493;-74
2022/10/04 10:17:03;;;;;;;14.87;4.00;;;;;;;19.95;46.75;98095.00;5029543;28;20486;-74
2022/10/04 10:19:44;;;;;;;5.50;3.90;;;;;;;19.85;46.02;98094.44;5050861;28;20433;-74
2022/10/04 10:22:21;;;;;;;8.70;4.40;;;;;;;19.95;47.01;98094.16;5032075;28;20427;-73
2022/10/04 10:25:02;;;;;;;11.40;4.43;;;;;;;20.09;46.38;98093.28;5052977;28;20425;-74
2022/10/04 10:27:49;;;;;;;8.10;4.20;;;;;;;20.24;46.47;98097.69;5050893;28;20418;-74
2022/10/04 10:30:26;;;;;;;11.40;3.90;;;;;;;20.48;45.29;98103.59;5050018;28;20450;-74
2022/10/04 10:33:31;;;;;;;7.17;3.77;;;;;;;20.70;45.00;98105.16;5032284;28;20506;-74
2022/10/04 10:36:16;;;;;;;5.57;3.60;;;;;;;20.95;45.17;98103.91;5050869;28;20512;-74
2022/10/04 10:38:53;;;;;;;8.13;3.93;;;;;;;21.23;45.07;98098.50;5049726;28;20476;-73
2022/10/04 10:41:30;;;;;;;6.07;3.63;;;;;;;21.47;44.24;98093.66;5044948;28;20480;-74
2022/10/04 10:44:01;;;;;;;6.73;4.20;;;;;;;21.68;43.40;98100.69;5051722;28;20453;-73
2022/10/04 10:46:45;;;;;;;14.10;3.30;;;;;;;21.53;42.73;98094.69;5051490;28;20426;-74
2022/10/04 10:49:30;;;;;;;5.60;3.47;;;;;;;21.81;43.29;98091.09;5052630;28;20472;-75
2022/10/04 10:52:29;;;;;;;7.03;3.67;;;;;;;21.75;43.76;98098.06;5051289;28;20428;-74
2022/10/04 10:54:58;;;;;;;7.33;4.33;;;;;;;21.85;42.88;98095.00;5043188;28;20441;-74
2022/10/04 10:57:41;;;;;;;5.80;4.00;;;;;;;21.94;42.60;98097.25;5050821;28;21094;-74
2022/10/04 11:00:07;;;;;;;6.77;3.80;;;;;;;22.24;43.09;98086.16;5051974;28;20437;-75
2022/10/04 11:02:38;;;;;;;7.43;4.13;;;;;;;22.31;42.88;98088.00;5034404;28;20422;-74
2022/10/04 11:05:35;;;;;;;5.90;4.00;;;;;;;22.52;42.56;98084.31;5041968;28;20184;-71
2022/10/04 11:08:20;;;;;;;7.87;3.70;;;;;;;22.61;41.85;98082.25;5050532;28;21042;-73
2022/10/04 11:11:14;;;;;;;6.40;3.73;;;;;;;22.66;41.61;98079.78;5051593;28;20446;-73
2022/10/04 11:13:57;;;;;;;12.27;3.40;;;;;;;22.90;43.40;98074.78;5051330;28;20515;-73
2022/10/04 11:16:30;;;;;;;8.50;3.40;;;;;;;23.03;42.72;98080.09;5050794;28;20432;-74
2022/10/04 11:19:46;;;;;;;5.17;3.93;;;;;;;23.21;41.08;98070.56;5043519;28;20452;-74
2022/10/04 11:22:41;;;;;;;4.73;3.13;;;;;;;23.22;40.75;98067.69;5042041;28;20587;-74
2022/10/04 11:25:06;;;;;;;7.23;3.40;;;;;;;23.47;41.57;98065.06;5051786;28;20460;-73
2022/10/04 11:28:06;;;;;;;3.60;3.30;;;;;;;23.51;40.45;98065.47;5051187;28;20457;-74
2022/10/04 11:31:10;;;;;;;7.40;3.73;;;;;;;23.50;40.11;98063.84;5035991;28;20629;-73
2022/10/04 11:33:53;;;;;;;10.40;4.10;;;;;;;23.58;39.58;98057.41;5044690;28;20523;-74
2022/10/04 11:36:21;;;;;;;5.83;3.70;;;;;;;23.63;39.84;98052.22;5049430;28;20452;-73
2022/10/04 11:39:08;;;;;;;3.83;3.40;;;;;;;23.62;40.46;98055.94;5049171;28;20817;-73
2022/10/04 11:41:47;;;;;;;9.27;3.60;;;;;;;23.54;40.51;98048.19;5044596;28;20478;-74
2022/10/04 11:44:42;;;;;;;5.33;3.77;;;;;;;23.63;40.93;98046.88;5051555;28;20475;-74
2022/10/04 11:47:21;;;;;;;5.60;2.80;;;;;;;23.86;40.96;98042.78;5049210;28;20425;-74
2022/10/04 11:50:07;;;;;;;5.53;3.40;;;;;;;24.07;40.13;98045.13;5051698;28;20444;-74
2022/10/04 11:53:01;;;;;;;3.30;2.50;;;;;;;24.23;40.02;98040.25;5050234;28;20425;-74
2022/10/04 11:55:52;;;;;;;6.87;3.30;;;;;;;23.93;39.15;98030.19;5050009;28;20479;-73
2022/10/04 11:58:47;;;;;;;6.13;3.20;;;;;;;24.11;39.06;98036.66;5032671;28;20524;-74
2022/10/04 12:01:39;;;;;;;2.70;2.20;;;;;;;24.16;38.48;98036.81;5029529;28;20410;-73
2022/10/04 12:04:30;;;;;;;4.93;2.10;;;;;;;24.19;37.65;98033.72;5063366;28;20422;-73
2022/10/04 12:07:21;;;;;;;5.53;2.00;;;;;;;24.34;38.32;98023.44;5050229;28;20428;-73
2022/10/04 12:10:01;;;;;;;10.07;2.87;;;;;;;24.62;37.97;98022.13;5051554;28;20556;-73
2022/10/04 12:12:36;;;;;;;5.60;2.20;;;;;;;24.49;36.14;98016.91;5050090;28;20414;-74
2022/10/04 12:15:06;;;;;;;2.83;1.80;;;;;;;24.68;36.93;98023.94;5041037;28;20860;-74
2022/10/04 12:17:38;;;;;;;3.67;1.90;;;;;;;24.67;36.44;98003.53;5034665;28;20444;-75
2022/10/04 12:20:27;;;;;;;2.07;1.90;;;;;;;24.65;36.58;98010.97;5050836;28;20999;-74
2022/10/04 12:23:30;;;;;;;2.70;2.10;;;;;;;24.86;36.35;98010.75;5041447;28;20974;-74
2022/10/04 12:26:08;;;;;;;5.10;1.87;;;;;;;24.80;36.86;98009.81;5043235;28;20410;-75
2022/10/04 12:28:39;;;;;;;2.57;1.80;;;;;;;24.66;36.69;98012.59;5033800;28;20421;-74
2022/10/04 12:31:19;;;;;;;9.70;2.30;;;;;;;24.57;37.19;98013.97;5042883;28;20788;-74